sensor_id;sensor_type;location;lat;lon;timestamp;P1;durP1;ratioP1;P2;durP2;ratioP2
46158;SDS011;31888;44.512;26.104;2023-01-04T00:01:22;72.72;;;39.20;;
46158;SDS011;31888;44.512;26.104;2023-01-04T00:03:48;70.13;;;37.55;;
46158;SDS011;31888;44.512;26.104;2023-01-04T00:06:14;60.45;;;34.80;;
46158;SDS011;31888;44.512;26.104;2023-01-04T00:08:39;63.40;;;35.17;;
46158;SDS011;31888;44.512;26.104;2023-01-04T00:11:05;62.45;;;36.38;;
46158;SDS011;31888;44.512;26.104;2023-01-04T00:13:30;62.80;;;34.45;;
46158;SDS011;31888;44.512;26.104;2023-01-04T00:15:56;56.90;;;32.17;;
46158;SDS011;31888;44.512;26.104;2023-01-04T00:18:29;61.15;;;32.75;;
46158;SDS011;31888;44.512;26.104;2023-01-04T00:20:59;58.67;;;33.30;;
46158;SDS011;31888;44.512;26.104;2023-01-04T00:23:29;80.03;;;42.70;;
46158;SDS011;31888;44.512;26.104;2023-01-04T00:25:54;78.53;;;43.67;;
46158;SDS011;31888;44.512;26.104;2023-01-04T00:28:19;76.53;;;42.45;;
46158;SDS011;31888;44.512;26.104;2023-01-04T00:30:43;71.10;;;39.70;;
46158;SDS011;31888;44.512;26.104;2023-01-04T00:33:08;71.97;;;39.38;;
46158;SDS011;31888;44.512;26.104;2023-01-04T00:35:32;75.07;;;39.35;;
46158;SDS011;31888;44.512;26.104;2023-01-04T00:38:09;67.65;;;37.22;;
46158;SDS011;31888;44.512;26.104;2023-01-04T00:40:33;59.90;;;33.15;;
46158;SDS011;31888;44.512;26.104;2023-01-04T00:42:58;61.15;;;35.05;;
46158;SDS011;31888;44.512;26.104;2023-01-04T00:45:23;65.60;;;35.92;;
46158;SDS011;31888;44.512;26.104;2023-01-04T00:47:48;74.05;;;39.85;;
46158;SDS011;31888;44.512;26.104;2023-01-04T00:50:12;73.15;;;38.90;;
46158;SDS011;31888;44.512;26.104;2023-01-04T00:52:37;68.63;;;36.40;;
46158;SDS011;31888;44.512;26.104;2023-01-04T00:55:04;75.18;;;41.83;;
46158;SDS011;31888;44.512;26.104;2023-01-04T00:57:29;71.88;;;39.28;;
46158;SDS011;31888;44.512;26.104;2023-01-04T00:59:54;60.17;;;34.03;;
46158;SDS011;31888;44.512;26.104;2023-01-04T01:02:18;56.67;;;32.75;;
46158;SDS011;31888;44.512;26.104;2023-01-04T01:04:43;71.18;;;38.72;;
46158;SDS011;31888;44.512;26.104;2023-01-04T01:07:08;69.80;;;37.70;;
46158;SDS011;31888;44.512;26.104;2023-01-04T01:09:33;65.75;;;36.55;;
46158;SDS011;31888;44.512;26.104;2023-01-04T01:11:59;70.55;;;38.45;;
46158;SDS011;31888;44.512;26.104;2023-01-04T01:14:24;72.00;;;40.30;;
46158;SDS011;31888;44.512;26.104;2023-01-04T01:16:49;73.43;;;41.05;;
46158;SDS011;31888;44.512;26.104;2023-01-04T01:19:18;72.13;;;37.75;;
46158;SDS011;31888;44.512;26.104;2023-01-04T01:21:42;57.97;;;35.08;;
46158;SDS011;31888;44.512;26.104;2023-01-04T01:24:08;59.53;;;34.83;;
46158;SDS011;31888;44.512;26.104;2023-01-04T01:26:37;63.97;;;33.67;;
46158;SDS011;31888;44.512;26.104;2023-01-04T01:29:03;69.75;;;36.45;;
46158;SDS011;31888;44.512;26.104;2023-01-04T01:31:28;61.92;;;34.72;;
46158;SDS011;31888;44.512;26.104;2023-01-04T01:33:53;65.07;;;36.10;;
46158;SDS011;31888;44.512;26.104;2023-01-04T01:36:19;62.15;;;34.38;;
46158;SDS011;31888;44.512;26.104;2023-01-04T01:38:45;63.47;;;34.03;;
46158;SDS011;31888;44.512;26.104;2023-01-04T01:41:13;62.33;;;34.17;;
46158;SDS011;31888;44.512;26.104;2023-01-04T01:43:51;56.80;;;33.90;;
46158;SDS011;31888;44.512;26.104;2023-01-04T01:46:19;65.97;;;34.60;;
46158;SDS011;31888;44.512;26.104;2023-01-04T01:48:47;59.72;;;32.80;;
46158;SDS011;31888;44.512;26.104;2023-01-04T01:51:14;56.63;;;32.28;;
46158;SDS011;31888;44.512;26.104;2023-01-04T01:53:40;63.25;;;32.42;;
46158;SDS011;31888;44.512;26.104;2023-01-04T01:56:09;58.85;;;33.00;;
46158;SDS011;31888;44.512;26.104;2023-01-04T01:58:34;54.60;;;30.63;;
46158;SDS011;31888;44.512;26.104;2023-01-04T02:01:06;54.25;;;31.48;;
46158;SDS011;31888;44.512;26.104;2023-01-04T02:03:34;54.88;;;30.33;;
46158;SDS011;31888;44.512;26.104;2023-01-04T02:06:02;55.20;;;30.60;;
46158;SDS011;31888;44.512;26.104;2023-01-04T02:08:29;51.13;;;27.90;;
46158;SDS011;31888;44.512;26.104;2023-01-04T02:10:54;54.03;;;29.38;;
46158;SDS011;31888;44.512;26.104;2023-01-04T02:13:20;54.63;;;29.95;;
46158;SDS011;31888;44.512;26.104;2023-01-04T02:16:03;59.17;;;31.15;;
46158;SDS011;31888;44.512;26.104;2023-01-04T02:18:36;66.47;;;34.60;;
46158;SDS011;31888;44.512;26.104;2023-01-04T02:21:10;62.35;;;33.92;;
46158;SDS011;31888;44.512;26.104;2023-01-04T02:23:51;70.00;;;36.42;;
46158;SDS011;31888;44.512;26.104;2023-01-04T02:32:55;58.97;;;31.60;;
46158;SDS011;31888;44.512;26.104;2023-01-04T02:35:29;60.85;;;34.92;;
46158;SDS011;31888;44.512;26.104;2023-01-04T02:38:02;58.03;;;33.45;;
46158;SDS011;31888;44.512;26.104;2023-01-04T02:40:39;67.55;;;34.65;;
46158;SDS011;31888;44.512;26.104;2023-01-04T02:43:12;58.75;;;32.90;;
46158;SDS011;31888;44.512;26.104;2023-01-04T02:46:01;63.53;;;33.78;;
46158;SDS011;31888;44.512;26.104;2023-01-04T02:48:36;59.72;;;32.72;;
46158;SDS011;31888;44.512;26.104;2023-01-04T02:51:23;57.65;;;32.50;;
46158;SDS011;31888;44.512;26.104;2023-01-04T02:53:51;59.15;;;32.35;;
46158;SDS011;31888;44.512;26.104;2023-01-04T02:56:17;56.47;;;32.50;;
46158;SDS011;31888;44.512;26.104;2023-01-04T02:59:08;60.15;;;32.15;;
46158;SDS011;31888;44.512;26.104;2023-01-04T03:01:47;63.03;;;31.55;;
46158;SDS011;31888;44.512;26.104;2023-01-04T03:04:42;60.10;;;32.40;;
46158;SDS011;31888;44.512;26.104;2023-01-04T03:07:33;56.58;;;32.35;;
46158;SDS011;31888;44.512;26.104;2023-01-04T03:10:04;56.80;;;32.45;;
46158;SDS011;31888;44.512;26.104;2023-01-04T03:12:36;61.08;;;33.38;;
46158;SDS011;31888;44.512;26.104;2023-01-04T03:15:08;58.92;;;32.65;;
46158;SDS011;31888;44.512;26.104;2023-01-04T03:17:38;63.22;;;33.17;;
46158;SDS011;31888;44.512;26.104;2023-01-04T03:20:09;55.75;;;30.88;;
46158;SDS011;31888;44.512;26.104;2023-01-04T03:22:37;59.25;;;31.60;;
46158;SDS011;31888;44.512;26.104;2023-01-04T03:25:22;56.55;;;32.33;;
46158;SDS011;31888;44.512;26.104;2023-01-04T03:28:07;57.72;;;33.25;;
46158;SDS011;31888;44.512;26.104;2023-01-04T03:30:54;57.47;;;30.60;;
46158;SDS011;31888;44.512;26.104;2023-01-04T03:33:39;55.53;;;31.95;;
46158;SDS011;31888;44.512;26.104;2023-01-04T03:36:26;57.40;;;31.92;;
46158;SDS011;31888;44.512;26.104;2023-01-04T03:39:00;65.15;;;32.75;;
46158;SDS011;31888;44.512;26.104;2023-01-04T03:41:49;58.13;;;32.30;;
46158;SDS011;31888;44.512;26.104;2023-01-04T03:44:40;51.47;;;31.05;;
46158;SDS011;31888;44.512;26.104;2023-01-04T03:47:32;55.78;;;30.80;;
46158;SDS011;31888;44.512;26.104;2023-01-04T03:50:22;50.08;;;28.75;;
46158;SDS011;31888;44.512;26.104;2023-01-04T03:52:51;53.95;;;29.08;;
46158;SDS011;31888;44.512;26.104;2023-01-04T03:55:18;52.67;;;30.55;;
46158;SDS011;31888;44.512;26.104;2023-01-04T03:57:45;47.33;;;28.77;;
46158;SDS011;31888;44.512;26.104;2023-01-04T04:00:11;55.45;;;28.70;;
46158;SDS011;31888;44.512;26.104;2023-01-04T04:02:38;53.90;;;30.80;;
46158;SDS011;31888;44.512;26.104;2023-01-04T04:05:04;46.22;;;27.70;;
46158;SDS011;31888;44.512;26.104;2023-01-04T04:07:47;53.08;;;28.63;;
46158;SDS011;31888;44.512;26.104;2023-01-04T04:10:31;48.90;;;28.60;;
46158;SDS011;31888;44.512;26.104;2023-01-04T04:12:55;49.63;;;28.25;;
46158;SDS011;31888;44.512;26.104;2023-01-04T04:15:20;52.63;;;29.90;;
46158;SDS011;31888;44.512;26.104;2023-01-04T04:17:44;50.72;;;28.73;;
46158;SDS011;31888;44.512;26.104;2023-01-04T04:20:09;54.38;;;30.58;;
46158;SDS011;31888;44.512;26.104;2023-01-04T04:22:34;58.03;;;30.38;;
46158;SDS011;31888;44.512;26.104;2023-01-04T04:24:59;62.80;;;32.45;;
46158;SDS011;31888;44.512;26.104;2023-01-04T04:27:25;53.85;;;28.83;;
46158;SDS011;31888;44.512;26.104;2023-01-04T04:29:50;54.20;;;29.83;;
46158;SDS011;31888;44.512;26.104;2023-01-04T04:32:14;61.30;;;32.05;;
46158;SDS011;31888;44.512;26.104;2023-01-04T04:34:39;59.25;;;31.10;;
46158;SDS011;31888;44.512;26.104;2023-01-04T04:37:03;64.30;;;32.00;;
46158;SDS011;31888;44.512;26.104;2023-01-04T04:39:28;58.10;;;30.95;;
46158;SDS011;31888;44.512;26.104;2023-01-04T04:41:52;56.83;;;31.00;;
46158;SDS011;31888;44.512;26.104;2023-01-04T04:44:18;56.55;;;29.75;;
46158;SDS011;31888;44.512;26.104;2023-01-04T04:46:43;53.05;;;29.77;;
46158;SDS011;31888;44.512;26.104;2023-01-04T04:49:09;54.83;;;31.05;;
46158;SDS011;31888;44.512;26.104;2023-01-04T04:51:35;55.70;;;31.13;;
46158;SDS011;31888;44.512;26.104;2023-01-04T04:54:00;58.15;;;31.67;;
46158;SDS011;31888;44.512;26.104;2023-01-04T04:56:25;57.65;;;30.88;;
46158;SDS011;31888;44.512;26.104;2023-01-04T04:58:50;61.28;;;32.38;;
46158;SDS011;31888;44.512;26.104;2023-01-04T05:01:16;58.65;;;32.78;;
46158;SDS011;31888;44.512;26.104;2023-01-04T05:03:41;59.78;;;30.80;;
46158;SDS011;31888;44.512;26.104;2023-01-04T05:06:06;58.20;;;31.60;;
46158;SDS011;31888;44.512;26.104;2023-01-04T05:08:30;58.15;;;31.33;;
46158;SDS011;31888;44.512;26.104;2023-01-04T05:10:55;53.35;;;30.73;;
46158;SDS011;31888;44.512;26.104;2023-01-04T05:13:20;54.88;;;31.38;;
46158;SDS011;31888;44.512;26.104;2023-01-04T05:15:44;59.85;;;30.25;;
46158;SDS011;31888;44.512;26.104;2023-01-04T05:18:12;49.13;;;28.95;;
46158;SDS011;31888;44.512;26.104;2023-01-04T05:20:39;56.53;;;30.10;;
46158;SDS011;31888;44.512;26.104;2023-01-04T05:23:03;54.08;;;29.33;;
46158;SDS011;31888;44.512;26.104;2023-01-04T05:25:28;46.70;;;26.90;;
46158;SDS011;31888;44.512;26.104;2023-01-04T05:27:53;58.13;;;29.00;;
46158;SDS011;31888;44.512;26.104;2023-01-04T05:30:18;50.53;;;29.02;;
46158;SDS011;31888;44.512;26.104;2023-01-04T05:33:00;52.30;;;29.55;;
46158;SDS011;31888;44.512;26.104;2023-01-04T05:35:27;53.38;;;29.63;;
46158;SDS011;31888;44.512;26.104;2023-01-04T05:37:52;53.10;;;29.48;;
46158;SDS011;31888;44.512;26.104;2023-01-04T05:40:16;52.08;;;29.77;;
46158;SDS011;31888;44.512;26.104;2023-01-04T05:42:41;63.38;;;31.38;;
46158;SDS011;31888;44.512;26.104;2023-01-04T05:45:06;56.10;;;32.05;;
46158;SDS011;31888;44.512;26.104;2023-01-04T05:47:31;58.10;;;31.55;;
46158;SDS011;31888;44.512;26.104;2023-01-04T05:49:56;145.38;;;66.50;;
46158;SDS011;31888;44.512;26.104;2023-01-04T05:52:22;121.72;;;57.85;;
46158;SDS011;31888;44.512;26.104;2023-01-04T05:54:47;77.55;;;39.05;;
46158;SDS011;31888;44.512;26.104;2023-01-04T05:57:12;70.80;;;36.80;;
46158;SDS011;31888;44.512;26.104;2023-01-04T05:59:37;73.35;;;37.60;;
46158;SDS011;31888;44.512;26.104;2023-01-04T06:02:04;68.45;;;36.55;;
46158;SDS011;31888;44.512;26.104;2023-01-04T06:04:29;100.47;;;45.50;;
46158;SDS011;31888;44.512;26.104;2023-01-04T06:06:53;132.65;;;55.13;;
46158;SDS011;31888;44.512;26.104;2023-01-04T06:09:19;84.95;;;40.05;;
46158;SDS011;31888;44.512;26.104;2023-01-04T06:11:44;72.22;;;37.35;;
46158;SDS011;31888;44.512;26.104;2023-01-04T06:14:09;85.50;;;41.45;;
46158;SDS011;31888;44.512;26.104;2023-01-04T06:16:33;81.05;;;40.30;;
46158;SDS011;31888;44.512;26.104;2023-01-04T06:18:58;70.97;;;35.78;;
46158;SDS011;31888;44.512;26.104;2023-01-04T06:21:23;69.75;;;36.97;;
46158;SDS011;31888;44.512;26.104;2023-01-04T06:23:48;77.57;;;37.15;;
46158;SDS011;31888;44.512;26.104;2023-01-04T06:26:14;74.07;;;36.78;;
46158;SDS011;31888;44.512;26.104;2023-01-04T06:28:38;76.88;;;36.88;;
46158;SDS011;31888;44.512;26.104;2023-01-04T06:31:03;64.10;;;35.42;;
46158;SDS011;31888;44.512;26.104;2023-01-04T06:33:29;66.03;;;33.92;;
46158;SDS011;31888;44.512;26.104;2023-01-04T06:35:54;74.00;;;37.78;;
46158;SDS011;31888;44.512;26.104;2023-01-04T06:38:18;68.97;;;36.60;;
46158;SDS011;31888;44.512;26.104;2023-01-04T06:40:43;81.60;;;40.80;;
46158;SDS011;31888;44.512;26.104;2023-01-04T06:43:09;76.38;;;38.35;;
46158;SDS011;31888;44.512;26.104;2023-01-04T06:45:33;69.72;;;34.95;;
46158;SDS011;31888;44.512;26.104;2023-01-04T06:47:58;59.08;;;30.45;;
46158;SDS011;31888;44.512;26.104;2023-01-04T06:50:30;52.00;;;28.50;;
46158;SDS011;31888;44.512;26.104;2023-01-04T06:52:55;53.38;;;25.45;;
46158;SDS011;31888;44.512;26.104;2023-01-04T06:55:19;55.17;;;27.65;;
46158;SDS011;31888;44.512;26.104;2023-01-04T06:57:44;49.05;;;24.45;;
46158;SDS011;31888;44.512;26.104;2023-01-04T07:00:11;50.60;;;24.73;;
46158;SDS011;31888;44.512;26.104;2023-01-04T07:02:37;47.05;;;25.33;;
46158;SDS011;31888;44.512;26.104;2023-01-04T07:05:22;51.88;;;26.77;;
46158;SDS011;31888;44.512;26.104;2023-01-04T07:07:46;54.03;;;26.52;;
46158;SDS011;31888;44.512;26.104;2023-01-04T07:10:11;55.65;;;27.73;;
46158;SDS011;31888;44.512;26.104;2023-01-04T07:12:36;51.33;;;26.85;;
46158;SDS011;31888;44.512;26.104;2023-01-04T07:15:01;55.35;;;27.80;;
46158;SDS011;31888;44.512;26.104;2023-01-04T07:17:48;54.17;;;29.50;;
46158;SDS011;31888;44.512;26.104;2023-01-04T07:20:13;60.45;;;29.35;;
46158;SDS011;31888;44.512;26.104;2023-01-04T07:22:38;53.50;;;26.88;;
46158;SDS011;31888;44.512;26.104;2023-01-04T07:25:03;49.75;;;26.08;;
46158;SDS011;31888;44.512;26.104;2023-01-04T07:27:28;44.33;;;23.60;;
46158;SDS011;31888;44.512;26.104;2023-01-04T07:29:52;61.17;;;27.55;;
46158;SDS011;31888;44.512;26.104;2023-01-04T07:32:17;47.38;;;24.25;;
46158;SDS011;31888;44.512;26.104;2023-01-04T07:34:43;48.55;;;25.02;;
46158;SDS011;31888;44.512;26.104;2023-01-04T07:37:07;44.53;;;22.02;;
46158;SDS011;31888;44.512;26.104;2023-01-04T07:39:32;43.33;;;23.27;;
46158;SDS011;31888;44.512;26.104;2023-01-04T07:41:57;43.70;;;21.17;;
46158;SDS011;31888;44.512;26.104;2023-01-04T07:44:23;45.90;;;19.48;;
46158;SDS011;31888;44.512;26.104;2023-01-04T07:46:50;38.78;;;20.63;;
46158;SDS011;31888;44.512;26.104;2023-01-04T07:49:15;39.30;;;19.10;;
46158;SDS011;31888;44.512;26.104;2023-01-04T07:51:42;38.30;;;17.02;;
46158;SDS011;31888;44.512;26.104;2023-01-04T07:54:11;32.47;;;16.92;;
46158;SDS011;31888;44.512;26.104;2023-01-04T07:56:38;36.50;;;18.30;;
46158;SDS011;31888;44.512;26.104;2023-01-04T07:59:03;38.08;;;17.77;;
46158;SDS011;31888;44.512;26.104;2023-01-04T08:01:28;36.85;;;17.25;;
46158;SDS011;31888;44.512;26.104;2023-01-04T08:03:54;35.72;;;17.35;;
46158;SDS011;31888;44.512;26.104;2023-01-04T08:06:19;34.08;;;15.70;;
46158;SDS011;31888;44.512;26.104;2023-01-04T08:08:46;31.92;;;16.33;;
46158;SDS011;31888;44.512;26.104;2023-01-04T08:11:11;45.53;;;19.35;;
46158;SDS011;31888;44.512;26.104;2023-01-04T08:13:37;33.50;;;16.00;;
46158;SDS011;31888;44.512;26.104;2023-01-04T08:16:02;29.83;;;15.63;;
46158;SDS011;31888;44.512;26.104;2023-01-04T08:18:27;32.05;;;16.27;;
46158;SDS011;31888;44.512;26.104;2023-01-04T08:21:00;31.77;;;16.95;;
46158;SDS011;31888;44.512;26.104;2023-01-04T08:23:25;33.97;;;18.05;;
46158;SDS011;31888;44.512;26.104;2023-01-04T08:25:51;34.08;;;16.45;;
46158;SDS011;31888;44.512;26.104;2023-01-04T08:28:16;29.77;;;16.45;;
46158;SDS011;31888;44.512;26.104;2023-01-04T08:30:40;32.42;;;15.88;;
46158;SDS011;31888;44.512;26.104;2023-01-04T08:33:11;33.28;;;17.00;;
46158;SDS011;31888;44.512;26.104;2023-01-04T08:35:37;31.10;;;14.93;;
46158;SDS011;31888;44.512;26.104;2023-01-04T08:38:02;33.58;;;15.00;;
46158;SDS011;31888;44.512;26.104;2023-01-04T08:40:46;32.20;;;16.23;;
46158;SDS011;31888;44.512;26.104;2023-01-04T08:43:24;38.97;;;16.67;;
46158;SDS011;31888;44.512;26.104;2023-01-04T08:45:49;37.10;;;15.68;;
46158;SDS011;31888;44.512;26.104;2023-01-04T08:48:14;33.78;;;16.27;;
46158;SDS011;31888;44.512;26.104;2023-01-04T08:50:46;34.10;;;16.48;;
46158;SDS011;31888;44.512;26.104;2023-01-04T08:53:10;34.42;;;15.85;;
46158;SDS011;31888;44.512;26.104;2023-01-04T08:55:35;34.65;;;15.93;;
46158;SDS011;31888;44.512;26.104;2023-01-04T08:58:00;28.10;;;13.23;;
46158;SDS011;31888;44.512;26.104;2023-01-04T09:00:26;34.50;;;16.65;;
46158;SDS011;31888;44.512;26.104;2023-01-04T09:02:51;32.90;;;16.98;;
46158;SDS011;31888;44.512;26.104;2023-01-04T09:05:16;31.02;;;15.05;;
46158;SDS011;31888;44.512;26.104;2023-01-04T09:07:44;27.02;;;13.43;;
46158;SDS011;31888;44.512;26.104;2023-01-04T09:10:09;29.88;;;15.15;;
46158;SDS011;31888;44.512;26.104;2023-01-04T09:12:34;32.20;;;16.73;;
46158;SDS011;31888;44.512;26.104;2023-01-04T09:14:59;27.88;;;14.93;;
46158;SDS011;31888;44.512;26.104;2023-01-04T09:17:26;27.50;;;14.18;;
46158;SDS011;31888;44.512;26.104;2023-01-04T09:19:50;31.50;;;16.00;;
46158;SDS011;31888;44.512;26.104;2023-01-04T09:22:15;26.45;;;14.57;;
46158;SDS011;31888;44.512;26.104;2023-01-04T09:24:41;25.98;;;14.60;;
46158;SDS011;31888;44.512;26.104;2023-01-04T09:27:05;21.70;;;10.52;;
46158;SDS011;31888;44.512;26.104;2023-01-04T09:29:30;31.05;;;14.07;;
46158;SDS011;31888;44.512;26.104;2023-01-04T09:31:54;23.33;;;12.50;;
46158;SDS011;31888;44.512;26.104;2023-01-04T09:34:21;24.55;;;11.43;;
46158;SDS011;31888;44.512;26.104;2023-01-04T09:36:46;21.17;;;10.90;;
46158;SDS011;31888;44.512;26.104;2023-01-04T09:39:12;19.20;;;8.88;;
46158;SDS011;31888;44.512;26.104;2023-01-04T09:41:46;22.90;;;11.30;;
46158;SDS011;31888;44.512;26.104;2023-01-04T09:44:16;21.92;;;10.98;;
46158;SDS011;31888;44.512;26.104;2023-01-04T09:47:12;17.88;;;9.88;;
46158;SDS011;31888;44.512;26.104;2023-01-04T09:49:42;19.92;;;9.98;;
46158;SDS011;31888;44.512;26.104;2023-01-04T09:54:39;21.27;;;9.27;;
46158;SDS011;31888;44.512;26.104;2023-01-04T09:57:08;16.70;;;8.75;;
46158;SDS011;31888;44.512;26.104;2023-01-04T09:59:41;19.50;;;9.88;;
46158;SDS011;31888;44.512;26.104;2023-01-04T10:02:10;14.80;;;7.65;;
46158;SDS011;31888;44.512;26.104;2023-01-04T10:04:39;15.77;;;7.13;;
46158;SDS011;31888;44.512;26.104;2023-01-04T10:07:11;16.55;;;8.70;;
46158;SDS011;31888;44.512;26.104;2023-01-04T10:09:40;14.70;;;7.90;;
46158;SDS011;31888;44.512;26.104;2023-01-04T10:12:08;13.40;;;7.28;;
46158;SDS011;31888;44.512;26.104;2023-01-04T10:14:51;20.65;;;8.50;;
46158;SDS011;31888;44.512;26.104;2023-01-04T10:17:24;12.55;;;6.03;;
46158;SDS011;31888;44.512;26.104;2023-01-04T10:23:36;15.90;;;7.90;;
46158;SDS011;31888;44.512;26.104;2023-01-04T10:26:13;14.50;;;8.63;;
46158;SDS011;31888;44.512;26.104;2023-01-04T10:28:54;15.00;;;7.65;;
46158;SDS011;31888;44.512;26.104;2023-01-04T10:31:38;12.52;;;6.60;;
46158;SDS011;31888;44.512;26.104;2023-01-04T10:34:14;16.13;;;7.20;;
46158;SDS011;31888;44.512;26.104;2023-01-04T10:36:46;12.55;;;6.90;;
46158;SDS011;31888;44.512;26.104;2023-01-04T10:39:13;14.27;;;7.20;;
46158;SDS011;31888;44.512;26.104;2023-01-04T10:41:40;14.15;;;6.95;;
46158;SDS011;31888;44.512;26.104;2023-01-04T10:44:08;11.30;;;6.53;;
46158;SDS011;31888;44.512;26.104;2023-01-04T10:46:40;17.20;;;9.48;;
46158;SDS011;31888;44.512;26.104;2023-01-04T10:49:09;16.83;;;7.60;;
46158;SDS011;31888;44.512;26.104;2023-01-04T10:51:40;22.17;;;11.57;;
46158;SDS011;31888;44.512;26.104;2023-01-04T10:54:17;16.52;;;8.63;;
46158;SDS011;31888;44.512;26.104;2023-01-04T10:56:50;10.77;;;6.32;;
46158;SDS011;31888;44.512;26.104;2023-01-04T10:59:27;16.08;;;6.32;;
46158;SDS011;31888;44.512;26.104;2023-01-04T11:01:58;14.00;;;6.75;;
46158;SDS011;31888;44.512;26.104;2023-01-04T11:04:31;12.70;;;6.47;;
46158;SDS011;31888;44.512;26.104;2023-01-04T11:07:01;9.82;;;6.30;;
46158;SDS011;31888;44.512;26.104;2023-01-04T11:09:33;10.35;;;6.05;;
46158;SDS011;31888;44.512;26.104;2023-01-04T11:12:03;10.95;;;6.22;;
46158;SDS011;31888;44.512;26.104;2023-01-04T11:14:31;10.63;;;5.57;;
46158;SDS011;31888;44.512;26.104;2023-01-04T11:17:00;14.88;;;6.97;;
46158;SDS011;31888;44.512;26.104;2023-01-04T11:19:27;17.10;;;7.22;;
46158;SDS011;31888;44.512;26.104;2023-01-04T11:21:52;16.00;;;7.30;;
46158;SDS011;31888;44.512;26.104;2023-01-04T11:24:21;18.52;;;8.30;;
46158;SDS011;31888;44.512;26.104;2023-01-04T11:26:58;11.93;;;7.30;;
46158;SDS011;31888;44.512;26.104;2023-01-04T11:29:29;12.18;;;7.15;;
46158;SDS011;31888;44.512;26.104;2023-01-04T11:31:58;13.18;;;6.47;;
46158;SDS011;31888;44.512;26.104;2023-01-04T11:34:45;12.80;;;7.05;;
46158;SDS011;31888;44.512;26.104;2023-01-04T11:39:56;15.10;;;7.22;;
46158;SDS011;31888;44.512;26.104;2023-01-04T11:42:46;16.02;;;6.95;;
46158;SDS011;31888;44.512;26.104;2023-01-04T11:45:15;10.77;;;6.82;;
46158;SDS011;31888;44.512;26.104;2023-01-04T11:47:46;17.83;;;7.80;;
46158;SDS011;31888;44.512;26.104;2023-01-04T11:50:19;15.73;;;6.85;;
46158;SDS011;31888;44.512;26.104;2023-01-04T11:52:58;16.60;;;7.15;;
46158;SDS011;31888;44.512;26.104;2023-01-04T11:55:23;14.48;;;7.47;;
46158;SDS011;31888;44.512;26.104;2023-01-04T11:57:54;15.85;;;7.85;;
46158;SDS011;31888;44.512;26.104;2023-01-04T12:02:53;14.30;;;8.20;;
46158;SDS011;31888;44.512;26.104;2023-01-04T12:05:34;16.52;;;8.68;;
46158;SDS011;31888;44.512;26.104;2023-01-04T12:07:59;17.35;;;8.68;;
46158;SDS011;31888;44.512;26.104;2023-01-04T12:10:25;19.70;;;9.20;;
46158;SDS011;31888;44.512;26.104;2023-01-04T12:12:50;17.13;;;9.63;;
46158;SDS011;31888;44.512;26.104;2023-01-04T12:15:19;19.50;;;8.23;;
46158;SDS011;31888;44.512;26.104;2023-01-04T12:17:49;21.00;;;9.13;;
46158;SDS011;31888;44.512;26.104;2023-01-04T12:20:18;15.00;;;8.65;;
46158;SDS011;31888;44.512;26.104;2023-01-04T12:22:44;21.80;;;10.45;;
46158;SDS011;31888;44.512;26.104;2023-01-04T12:25:18;18.42;;;10.25;;
46158;SDS011;31888;44.512;26.104;2023-01-04T12:27:53;16.48;;;9.10;;
46158;SDS011;31888;44.512;26.104;2023-01-04T12:30:33;13.90;;;8.15;;
46158;SDS011;31888;44.512;26.104;2023-01-04T12:33:13;14.95;;;8.90;;
46158;SDS011;31888;44.512;26.104;2023-01-04T12:36:02;22.75;;;9.25;;
46158;SDS011;31888;44.512;26.104;2023-01-04T12:45:00;22.02;;;10.20;;
46158;SDS011;31888;44.512;26.104;2023-01-04T12:47:47;17.77;;;10.25;;
46158;SDS011;31888;44.512;26.104;2023-01-04T12:50:30;23.48;;;10.20;;
46158;SDS011;31888;44.512;26.104;2023-01-04T12:53:03;18.10;;;9.82;;
46158;SDS011;31888;44.512;26.104;2023-01-04T12:55:52;17.17;;;9.60;;
46158;SDS011;31888;44.512;26.104;2023-01-04T13:04:46;19.10;;;9.23;;
46158;SDS011;31888;44.512;26.104;2023-01-04T13:07:31;24.83;;;11.93;;
46158;SDS011;31888;44.512;26.104;2023-01-04T13:10:18;20.42;;;11.30;;
46158;SDS011;31888;44.512;26.104;2023-01-04T13:12:55;24.05;;;11.43;;
46158;SDS011;31888;44.512;26.104;2023-01-04T13:15:43;24.05;;;10.45;;
46158;SDS011;31888;44.512;26.104;2023-01-04T13:18:34;22.42;;;10.90;;
46158;SDS011;31888;44.512;26.104;2023-01-04T13:21:02;18.58;;;10.48;;
46158;SDS011;31888;44.512;26.104;2023-01-04T13:23:34;19.63;;;10.18;;
46158;SDS011;31888;44.512;26.104;2023-01-04T13:28:53;22.45;;;10.57;;
46158;SDS011;31888;44.512;26.104;2023-01-04T13:31:29;21.63;;;11.25;;
46158;SDS011;31888;44.512;26.104;2023-01-04T13:33:53;22.63;;;11.10;;
46158;SDS011;31888;44.512;26.104;2023-01-04T13:36:19;22.20;;;10.40;;
46158;SDS011;31888;44.512;26.104;2023-01-04T13:38:44;23.10;;;10.63;;
46158;SDS011;31888;44.512;26.104;2023-01-04T13:41:16;17.75;;;9.85;;
46158;SDS011;31888;44.512;26.104;2023-01-04T13:43:46;20.40;;;10.32;;
46158;SDS011;31888;44.512;26.104;2023-01-04T13:46:19;19.10;;;8.98;;
46158;SDS011;31888;44.512;26.104;2023-01-04T13:48:46;18.63;;;10.02;;
46158;SDS011;31888;44.512;26.104;2023-01-04T13:51:14;20.35;;;10.02;;
46158;SDS011;31888;44.512;26.104;2023-01-04T13:53:41;17.25;;;9.82;;
46158;SDS011;31888;44.512;26.104;2023-01-04T13:56:16;21.83;;;10.82;;
46158;SDS011;31888;44.512;26.104;2023-01-04T13:58:43;16.05;;;9.02;;
46158;SDS011;31888;44.512;26.104;2023-01-04T14:01:11;16.90;;;9.25;;
46158;SDS011;31888;44.512;26.104;2023-01-04T14:03:41;17.35;;;9.50;;
46158;SDS011;31888;44.512;26.104;2023-01-04T14:06:14;18.75;;;9.45;;
46158;SDS011;31888;44.512;26.104;2023-01-04T14:08:45;18.10;;;9.00;;
46158;SDS011;31888;44.512;26.104;2023-01-04T14:11:16;16.88;;;8.82;;
46158;SDS011;31888;44.512;26.104;2023-01-04T14:13:57;23.23;;;10.88;;
46158;SDS011;31888;44.512;26.104;2023-01-04T14:16:22;16.98;;;9.30;;
46158;SDS011;31888;44.512;26.104;2023-01-04T14:18:51;22.95;;;9.68;;
46158;SDS011;31888;44.512;26.104;2023-01-04T14:21:16;16.35;;;9.45;;
46158;SDS011;31888;44.512;26.104;2023-01-04T14:23:41;18.20;;;9.85;;
46158;SDS011;31888;44.512;26.104;2023-01-04T14:26:08;16.88;;;9.63;;
46158;SDS011;31888;44.512;26.104;2023-01-04T14:28:53;19.58;;;10.00;;
46158;SDS011;31888;44.512;26.104;2023-01-04T14:31:18;22.05;;;9.45;;
46158;SDS011;31888;44.512;26.104;2023-01-04T14:33:47;23.55;;;9.70;;
46158;SDS011;31888;44.512;26.104;2023-01-04T14:36:13;20.15;;;9.52;;
46158;SDS011;31888;44.512;26.104;2023-01-04T14:38:42;19.63;;;9.88;;
46158;SDS011;31888;44.512;26.104;2023-01-04T14:41:14;22.30;;;10.75;;
46158;SDS011;31888;44.512;26.104;2023-01-04T14:43:43;22.40;;;10.25;;
46158;SDS011;31888;44.512;26.104;2023-01-04T14:46:09;18.65;;;10.98;;
46158;SDS011;31888;44.512;26.104;2023-01-04T14:48:54;20.55;;;11.20;;
46158;SDS011;31888;44.512;26.104;2023-01-04T14:51:20;22.38;;;11.32;;
46158;SDS011;31888;44.512;26.104;2023-01-04T14:53:46;20.67;;;10.35;;
46158;SDS011;31888;44.512;26.104;2023-01-04T14:56:14;26.85;;;11.98;;
46158;SDS011;31888;44.512;26.104;2023-01-04T14:58:40;24.80;;;10.80;;